Time;durP1;ratioP1;P1;durP2;ratioP2;P2;SDS_P1;SDS_P2;PMS_P1;PMS_P2;Temp;Humidity;BMP_temperature;BMP_pressure;BME280_temperature;BME280_humidity;BME280_pressure;Samples;Min_cycle;Max_cycle;Signal;HPM_P1;HPM_P2
2021/07/08 00:01:37;;;;;;;20.83;16.77;;;;;;;16.38;97.45;101428.84;4956234;28;20292;-81
2021/07/08 00:04:02;;;;;;;17.73;15.93;;;;;;;16.37;96.86;101426.31;4967867;28;20062;-80
2021/07/08 00:06:28;;;;;;;20.02;17.92;;;;;;;16.31;97.13;101425.19;4930919;28;20126;-79
2021/07/08 00:08:53;;;;;;;20.10;18.17;;;;;;;16.23;96.60;101425.31;4966800;28;20082;-82
2021/07/08 00:11:19;;;;;;;20.50;18.60;;;;;;;16.18;97.88;101423.16;4945813;28;20038;-84
2021/07/08 00:13:47;;;;;;;21.42;19.08;;;;;;;16.18;97.65;101428.56;4930261;29;20287;-83
2021/07/08 00:16:12;;;;;;;20.58;18.38;;;;;;;16.17;97.03;101428.75;4914477;28;20047;-80
2021/07/08 00:18:37;;;;;;;19.63;17.63;;;;;;;16.12;97.35;101433.88;4946973;29;20480;-82
2021/07/08 00:21:03;;;;;;;20.15;18.33;;;;;;;16.08;97.16;101430.69;4929046;29;20439;-82
2021/07/08 00:23:28;;;;;;;20.80;18.73;;;;;;;16.04;97.53;101428.56;4945750;29;20043;-82
2021/07/08 00:25:55;;;;;;;19.92;18.02;;;;;;;16.00;97.50;101426.22;4930467;29;20694;-81
2021/07/08 00:28:20;;;;;;;22.17;20.05;;;;;;;15.95;97.25;101433.22;4946667;29;20341;-82
2021/07/08 00:30:48;;;;;;;23.10;20.88;;;;;;;15.84;98.48;101431.78;4914348;29;20063;-81
2021/07/08 00:33:14;;;;;;;22.38;20.30;;;;;;;15.82;98.48;101424.88;4927460;29;20046;-79
2021/07/08 00:35:40;;;;;;;23.42;21.00;;;;;;;15.75;98.72;101417.47;4946968;29;20283;-80
2021/07/08 00:38:06;;;;;;;23.10;20.80;;;;;;;15.76;99.17;101423.72;4946749;28;20043;-79
2021/07/08 00:40:33;;;;;;;22.02;19.75;;;;;;;15.74;99.20;101409.56;4946662;28;20117;-81
2021/07/08 00:42:58;;;;;;;21.63;19.30;;;;;;;15.68;99.02;101421.97;4930003;29;20042;-81
2021/07/08 00:45:26;;;;;;;22.15;19.08;;;;;;;15.65;98.88;101410.59;4934772;29;20047;-84
2021/07/08 00:47:52;;;;;;;20.13;18.02;;;;;;;15.60;98.99;101411.16;4947533;29;20239;-81
2021/07/08 00:50:22;;;;;;;18.77;16.67;;;;;;;15.55;98.64;101409.00;4929947;29;20101;-84
2021/07/08 00:52:48;;;;;;;16.98;15.32;;;;;;;15.48;99.19;101412.63;4947252;28;20043;-83
2021/07/08 00:55:14;;;;;;;16.27;14.02;;;;;;;15.43;99.43;101407.75;4947214;29;20059;-82
2021/07/08 00:57:42;;;;;;;16.30;14.00;;;;;;;15.33;99.51;101407.16;4945371;28;20047;-81
2021/07/08 01:00:08;;;;;;;16.85;12.90;;;;;;;15.29;100.00;101419.34;4929979;29;20381;-80
2021/07/08 01:02:34;;;;;;;13.50;12.05;;;;;;;15.29;100.00;101420.19;4980733;28;20069;-81
2021/07/08 01:04:59;;;;;;;14.52;11.80;;;;;;;15.26;100.00;101417.84;4981521;28;20066;-83
2021/07/08 01:07:26;;;;;;;13.32;10.93;;;;;;;15.25;99.63;101415.34;4948259;28;20098;-82
2021/07/08 01:09:52;;;;;;;14.65;11.55;;;;;;;15.22;100.00;101427.34;4951449;28;20062;-81
2021/07/08 01:12:19;;;;;;;13.88;11.52;;;;;;;15.18;99.88;101428.72;4944266;28;20122;-81
2021/07/08 01:14:44;;;;;;;14.80;10.52;;;;;;;15.13;99.83;101428.41;4959338;28;20066;-83
2021/07/08 01:17:10;;;;;;;12.68;10.18;;;;;;;15.10;99.30;101424.22;4941618;28;20078;-82
2021/07/08 01:19:39;;;;;;;13.52;10.73;;;;;;;15.09;99.27;101422.53;4959510;28;20462;-83
2021/07/08 01:22:05;;;;;;;14.60;10.20;;;;;;;15.07;99.43;101423.72;4936355;28;20054;-84
2021/07/08 01:24:32;;;;;;;11.95;9.82;;;;;;;15.08;99.16;101426.25;4932838;28;20042;-80
2021/07/08 01:26:58;;;;;;;11.93;9.70;;;;;;;15.09;98.84;101435.19;4960365;28;20126;-81
2021/07/08 01:29:24;;;;;;;11.25;10.10;;;;;;;15.09;98.91;101435.19;4955844;28;20138;-82
2021/07/08 01:31:50;;;;;;;11.68;9.23;;;;;;;15.04;99.47;101424.06;4948459;28;20551;-83
2021/07/08 01:34:15;;;;;;;12.38;10.20;;;;;;;14.99;99.38;101419.22;4953861;28;20137;-82
2021/07/08 01:36:42;;;;;;;12.80;10.30;;;;;;;14.98;99.95;101422.94;4941221;28;20047;-80
2021/07/08 01:39:07;;;;;;;13.43;9.27;;;;;;;14.93;99.58;101421.78;4958491;28;20049;-81
2021/07/08 01:41:33;;;;;;;14.10;9.75;;;;;;;14.90;99.26;101425.66;4959003;28;20395;-83
2021/07/08 01:44:00;;;;;;;10.48;8.82;;;;;;;14.86;98.89;101427.88;4957854;28;20035;-81
2021/07/08 01:46:26;;;;;;;15.70;10.23;;;;;;;14.81;99.57;101432.13;4946446;28;20499;-82
2021/07/08 01:48:52;;;;;;;11.88;8.98;;;;;;;14.79;99.80;101437.72;4933805;28;20185;-82
2021/07/08 01:51:23;;;;;;;11.27;9.55;;;;;;;14.78;99.30;101437.91;4958482;28;20050;-83
2021/07/08 01:53:49;;;;;;;14.45;9.50;;;;;;;14.74;99.19;101437.41;4947979;28;20512;-81
2021/07/08 01:56:15;;;;;;;13.50;9.73;;;;;;;14.69;98.87;101430.84;4938033;28;20047;-80
2021/07/08 01:58:40;;;;;;;13.10;10.18;;;;;;;14.66;100.00;101429.34;4953064;28;20047;-82
2021/07/08 02:01:06;;;;;;;12.80;9.88;;;;;;;14.65;99.93;101436.59;4954922;28;20270;-82
2021/07/08 02:03:32;;;;;;;11.75;9.25;;;;;;;14.61;99.74;101429.84;4957105;28;20072;-79
2021/07/08 02:09:19;;;;;;;11.02;9.25;;;;;;;14.54;99.90;101434.28;4933879;28;20086;-81
2021/07/08 02:11:44;;;;;;;11.50;9.18;;;;;;;14.50;99.81;101423.97;4933151;29;20082;-80
2021/07/08 02:14:11;;;;;;;12.70;8.95;;;;;;;14.51;99.87;101423.81;4914861;29;20040;-80
2021/07/08 02:16:37;;;;;;;12.02;9.60;;;;;;;14.46;99.94;101420.78;4942650;28;20054;-80
2021/07/08 02:19:05;;;;;;;12.65;9.55;;;;;;;14.45;99.88;101424.50;4958309;28;20047;-81
2021/07/08 02:21:30;;;;;;;16.33;9.50;;;;;;;14.40;100.00;101414.22;4933629;28;20090;-82
2021/07/08 02:23:56;;;;;;;14.07;9.00;;;;;;;14.38;99.70;101412.69;4941189;28;20411;-79
2021/07/08 02:26:22;;;;;;;13.52;10.10;;;;;;;14.37;100.00;101405.63;4955669;28;20047;-80
2021/07/08 02:28:48;;;;;;;12.30;9.73;;;;;;;14.36;100.00;101409.34;4941103;28;20047;-82
2021/07/08 02:31:13;;;;;;;12.85;9.93;;;;;;;14.32;100.00;101414.22;4938809;28;20035;-81
2021/07/08 02:33:39;;;;;;;14.00;10.45;;;;;;;14.31;100.00;101409.88;4965038;28;20547;-81
2021/07/08 02:36:05;;;;;;;14.85;11.02;;;;;;;14.28;100.00;101417.47;4955905;28;20046;-81
2021/07/08 02:38:31;;;;;;;15.25;9.73;;;;;;;14.28;100.00;101418.31;4955870;28;29680;-81
2021/07/08 02:40:56;;;;;;;13.15;10.07;;;;;;;14.22;100.00;101422.53;4960685;28;20504;-81
2021/07/08 02:43:22;;;;;;;14.50;10.02;;;;;;;14.22;100.00;101425.25;4960675;28;20057;-81
2021/07/08 02:45:48;;;;;;;12.65;9.75;;;;;;;14.24;100.00;101419.66;4946161;28;20094;-80
2021/07/08 02:48:16;;;;;;;13.60;9.70;;;;;;;14.25;100.00;101423.22;4953868;28;20050;-81
2021/07/08 02:50:45;;;;;;;12.27;10.10;;;;;;;14.19;99.91;101413.97;4960702;28;20110;-79
2021/07/08 02:53:11;;;;;;;13.38;10.63;;;;;;;14.16;99.70;101415.16;4961953;28;20260;-81
2021/07/08 02:55:37;;;;;;;12.95;10.20;;;;;;;14.14;100.00;101409.06;4936455;28;20047;-80
2021/07/08 02:58:03;;;;;;;13.15;10.25;;;;;;;14.12;100.00;101411.09;4963227;28;20034;-80
2021/07/08 03:00:30;;;;;;;14.90;10.45;;;;;;;14.09;100.00;101408.72;4943462;28;20062;-83
2021/07/08 03:02:56;;;;;;;14.18;9.77;;;;;;;14.05;100.00;101412.81;4954064;28;20499;-83
2021/07/08 03:05:22;;;;;;;10.95;9.38;;;;;;;13.99;100.00;101408.09;4965714;28;20093;-82
2021/07/08 03:07:47;;;;;;;14.43;11.02;;;;;;;13.95;100.00;101406.75;4961383;28;20077;-81
2021/07/08 03:10:14;;;;;;;15.07;10.50;;;;;;;13.95;100.00;101417.53;4957030;28;20477;-80
2021/07/08 03:12:40;;;;;;;12.82;10.77;;;;;;;13.95;100.00;101407.59;4957512;28;20129;-80
2021/07/08 03:15:07;;;;;;;15.32;10.18;;;;;;;13.93;100.00;101404.22;4942052;28;20182;-80
2021/07/08 03:17:33;;;;;;;14.82;10.63;;;;;;;13.91;100.00;101413.50;4941453;28;20084;-81
2021/07/08 03:20:00;;;;;;;12.57;10.23;;;;;;;13.91;100.00;101416.19;4958460;28;20050;-80
2021/07/08 03:22:26;;;;;;;15.05;10.82;;;;;;;13.92;100.00;101421.41;4959220;28;20138;-82
2021/07/08 03:24:52;;;;;;;14.45;10.93;;;;;;;13.92;100.00;101424.09;4958890;28;20125;-81
2021/07/08 03:27:17;;;;;;;12.25;10.73;;;;;;;13.90;100.00;101428.84;4962308;28;20058;-81
2021/07/08 03:29:42;;;;;;;12.07;10.05;;;;;;;13.89;100.00;101434.41;4934328;28;20502;-83
2021/07/08 03:32:08;;;;;;;14.90;9.73;;;;;;;13.82;100.00;101426.16;4944602;28;20042;-81
2021/07/08 03:34:33;;;;;;;13.48;10.25;;;;;;;13.80;100.00;101425.47;4943488;28;20101;-80
2021/07/08 03:36:59;;;;;;;11.95;9.55;;;;;;;13.81;100.00;101431.72;4942453;28;20043;-80
2021/07/08 03:39:24;;;;;;;15.18;9.73;;;;;;;13.79;100.00;101425.66;4924568;28;20073;-80
2021/07/08 03:41:50;;;;;;;16.73;10.43;;;;;;;13.77;100.00;101426.66;4961002;28;20051;-80
2021/07/08 03:44:15;;;;;;;13.05;10.27;;;;;;;13.76;100.00;101430.38;4959105;28;20106;-81
2021/07/08 03:46:41;;;;;;;13.50;10.73;;;;;;;13.78;100.00;101432.88;4962757;28;20058;-83
2021/07/08 03:49:06;;;;;;;16.98;10.23;;;;;;;13.77;100.00;101423.97;4957511;28;20554;-82
2021/07/08 03:51:31;;;;;;;13.73;10.60;;;;;;;13.80;100.00;101430.03;4942697;28;20266;-83
2021/07/08 03:53:57;;;;;;;15.40;10.48;;;;;;;13.80;100.00;101427.34;4923059;29;20404;-83
2021/07/08 03:56:22;;;;;;;15.40;10.23;;;;;;;13.80;100.00;101435.44;4940082;29;20142;-84
2021/07/08 03:58:48;;;;;;;15.07;10.65;;;;;;;13.80;100.00;101432.75;4940311;29;20118;-80
2021/07/08 04:01:13;;;;;;;14.52;10.30;;;;;;;13.81;100.00;101437.09;4941381;29;20043;-79
2021/07/08 04:03:38;;;;;;;18.48;11.25;;;;;;;13.79;100.00;101448.09;4941387;28;20058;-84
2021/07/08 04:06:04;;;;;;;16.35;11.52;;;;;;;13.83;100.00;101449.41;4899236;29;20051;-82
2021/07/08 04:08:29;;;;;;;13.48;10.10;;;;;;;13.85;100.00;101438.47;4922917;29;20051;-82
2021/07/08 04:10:56;;;;;;;13.10;11.05;;;;;;;13.84;100.00;101437.63;4938704;29;20039;-83
2021/07/08 04:13:22;;;;;;;14.00;10.80;;;;;;;13.84;100.00;101442.16;4920743;29;20039;-81
2021/07/08 04:15:49;;;;;;;12.90;10.73;;;;;;;13.82;100.00;101445.03;4938228;28;20109;-81
2021/07/08 04:18:17;;;;;;;14.70;10.93;;;;;;;13.82;100.00;101461.22;4941649;29;20058;-82
2021/07/08 04:20:44;;;;;;;14.23;10.60;;;;;;;13.86;100.00;101456.34;4942422;29;20051;-81
2021/07/08 04:23:12;;;;;;;13.05;10.88;;;;;;;13.91;100.00;101453.97;4941805;29;20050;-82
2021/07/08 04:25:38;;;;;;;15.75;11.30;;;;;;;13.95;100.00;101460.69;4922927;29;20043;-82
2021/07/08 04:28:05;;;;;;;17.48;11.15;;;;;;;13.97;100.00;101458.69;4941267;29;20312;-81
2021/07/08 04:30:31;;;;;;;12.95;11.48;;;;;;;14.03;100.00;101463.41;4923377;28;20527;-81
2021/07/08 04:32:57;;;;;;;15.35;10.88;;;;;;;14.08;100.00;101458.34;4926732;28;20057;-82
2021/07/08 04:35:36;;;;;;;12.27;10.45;;;;;;;14.13;100.00;101469.47;4959010;28;20038;-86
2021/07/08 04:38:03;;;;;;;15.55;11.48;;;;;;;14.22;100.00;101468.44;4943827;28;20157;-83
2021/07/08 04:40:29;;;;;;;15.80;11.38;;;;;;;14.29;100.00;101468.56;4944033;28;20089;-82
2021/07/08 04:42:55;;;;;;;16.08;11.93;;;;;;;14.35;100.00;101472.44;4943948;28;20051;-83
2021/07/08 04:45:20;;;;;;;14.38;10.93;;;;;;;14.44;100.00;101458.78;4959833;28;20051;-80
2021/07/08 04:47:47;;;;;;;14.75;10.75;;;;;;;14.55;99.55;101462.97;4933079;28;20551;-81
2021/07/08 04:50:17;;;;;;;14.82;10.95;;;;;;;14.70;100.00;101468.47;4952376;28;20658;-84
2021/07/08 04:52:44;;;;;;;13.27;10.70;;;;;;;14.84;100.00;101472.31;4951567;28;20038;-82
2021/07/08 04:55:11;;;;;;;14.75;12.02;;;;;;;14.98;100.00;101471.56;4944097;28;20492;-80
2021/07/08 04:57:37;;;;;;;13.57;11.30;;;;;;;15.10;100.00;101467.47;4943011;28;20726;-83
2021/07/08 05:00:09;;;;;;;22.13;11.23;;;;;;;15.24;100.00;101473.13;4930874;28;20046;-84
2021/07/08 05:02:43;;;;;;;15.27;11.30;;;;;;;15.34;100.00;101479.16;4941984;28;20137;-82
2021/07/08 05:05:10;;;;;;;13.93;11.15;;;;;;;15.41;100.00;101484.69;4959714;28;20050;-83
2021/07/08 05:07:36;;;;;;;17.30;10.60;;;;;;;15.46;99.87;101483.13;4957411;28;20074;-82
2021/07/08 05:10:05;;;;;;;16.25;11.05;;;;;;;15.55;99.01;101487.44;4952870;28;20074;-82
2021/07/08 05:12:31;;;;;;;13.13;9.88;;;;;;;15.64;97.56;101485.53;4957064;28;20042;-81
2021/07/08 05:14:56;;;;;;;15.65;10.23;;;;;;;15.73;97.64;101480.91;4961715;28;20126;-82
2021/07/08 05:17:22;;;;;;;15.73;10.48;;;;;;;15.80;96.97;101479.19;4941036;28;20057;-83
2021/07/08 05:19:47;;;;;;;14.55;10.45;;;;;;;15.91;96.89;101478.75;4924401;28;20318;-83
2021/07/08 05:22:15;;;;;;;15.07;10.10;;;;;;;15.95;97.19;101476.50;4960286;28;20133;-80
2021/07/08 05:24:40;;;;;;;15.38;10.23;;;;;;;16.04;96.04;101480.00;4955295;28;20404;-82
2021/07/08 05:27:06;;;;;;;13.52;10.05;;;;;;;16.10;95.05;101476.53;4938841;29;20047;-85
2021/07/08 05:29:31;;;;;;;11.57;9.70;;;;;;;16.18;96.26;101481.88;4921279;29;20059;-84
2021/07/08 05:31:57;;;;;;;15.63;10.80;;;;;;;16.21;96.02;101482.34;4920370;28;20047;-83
2021/07/08 05:34:23;;;;;;;14.82;10.40;;;;;;;16.29;95.49;101486.00;4943352;28;20126;-83
2021/07/08 05:36:48;;;;;;;15.20;10.48;;;;;;;16.33;95.23;101479.19;4922255;29;20039;-79
2021/07/08 05:39:15;;;;;;;12.38;9.52;;;;;;;16.39;95.43;101471.16;4940297;29;20060;-78
2021/07/08 05:41:40;;;;;;;13.95;9.63;;;;;;;16.40;94.22;101475.56;4941247;28;20043;-85
2021/07/08 05:44:06;;;;;;;14.05;9.90;;;;;;;16.51;94.43;101459.84;4923660;28;20510;-83
2021/07/08 05:46:32;;;;;;;13.07;9.68;;;;;;;16.55;93.75;101466.59;4929144;28;20027;-85
2021/07/08 05:48:57;;;;;;;14.63;9.98;;;;;;;16.62;93.74;101470.22;4935998;28;20377;-85
2021/07/08 05:51:23;;;;;;;14.93;10.52;;;;;;;16.68;92.68;101472.19;4948233;28;20049;-81
2021/07/08 05:53:48;;;;;;;13.73;10.05;;;;;;;16.71;92.99;101477.22;4943401;28;20397;-81
2021/07/08 05:56:14;;;;;;;14.50;10.65;;;;;;;16.74;94.41;101470.59;4903462;29;20055;-82
2021/07/08 05:58:39;;;;;;;12.52;10.45;;;;;;;16.79;93.75;101481.75;4929353;29;20043;-83
2021/07/08 06:01:04;;;;;;;16.00;10.48;;;;;;;16.81;94.55;101488.66;4922868;29;20496;-82
2021/07/08 06:03:30;;;;;;;14.93;10.13;;;;;;;16.85;93.24;101494.53;4918810;28;20134;-82
2021/07/08 06:05:55;;;;;;;14.15;11.15;;;;;;;16.92;93.91;101490.91;4927233;28;20043;-83
2021/07/08 06:08:20;;;;;;;13.13;10.20;;;;;;;16.96;92.52;101485.09;4937255;28;20475;-80
2021/07/08 06:10:46;;;;;;;15.10;10.60;;;;;;;17.01;93.59;101483.50;4925118;28;20161;-83
2021/07/08 06:13:11;;;;;;;17.10;10.50;;;;;;;17.06;93.33;101482.91;4934938;28;20047;-80
2021/07/08 06:15:37;;;;;;;14.07;10.40;;;;;;;17.08;92.38;101478.97;4963372;28;20042;-81
2021/07/08 06:18:03;;;;;;;14.75;10.82;;;;;;;17.13;91.86;101476.53;4954584;28;20038;-82
2021/07/08 06:20:30;;;;;;;15.27;10.30;;;;;;;17.21;91.66;101472.03;4960373;28;20051;-81
2021/07/08 06:22:56;;;;;;;14.68;10.48;;;;;;;17.27;91.30;101477.53;4961097;28;20119;-83
2021/07/08 06:25:22;;;;;;;15.85;10.20;;;;;;;17.32;90.32;101485.94;4935275;28;20039;-81
2021/07/08 06:31:10;;;;;;;15.40;9.95;;;;;;;17.40;89.77;101490.38;4955421;28;20050;-86
2021/07/08 06:33:35;;;;;;;13.27;9.88;;;;;;;17.42;88.96;101491.03;4952489;28;20483;-83
2021/07/08 06:36:00;;;;;;;16.73;10.48;;;;;;;17.52;87.95;101499.72;4962695;28;20030;-86
2021/07/08 06:38:26;;;;;;;16.42;10.50;;;;;;;17.62;88.37;101504.00;4956264;28;20496;-82
2021/07/08 06:40:53;;;;;;;12.70;10.25;;;;;;;17.67;87.11;101510.50;4965459;28;20053;-82
2021/07/08 06:43:18;;;;;;;15.13;10.85;;;;;;;17.75;87.98;101518.53;4935981;28;20062;-83
2021/07/08 06:45:44;;;;;;;13.90;9.88;;;;;;;17.78;87.58;101512.75;4939216;28;20036;-82
2021/07/08 06:48:12;;;;;;;16.27;9.70;;;;;;;17.87;88.65;101512.63;4958768;28;20866;-84
2021/07/08 06:50:39;;;;;;;11.63;9.77;;;;;;;17.94;87.01;101514.34;4961034;28;20055;-84
2021/07/08 06:53:05;;;;;;;16.13;10.35;;;;;;;18.02;86.27;101516.09;4934832;28;20039;-82
2021/07/08 06:55:32;;;;;;;16.13;10.02;;;;;;;18.09;86.06;101514.25;4956045;28;20408;-82
2021/07/08 06:57:57;;;;;;;14.40;9.52;;;;;;;18.19;85.27;101522.91;4953558;28;20047;-84
2021/07/08 07:00:28;;;;;;;14.00;9.75;;;;;;;18.31;84.69;101517.78;4940394;28;20058;-83
2021/07/08 07:02:57;;;;;;;12.55;9.27;;;;;;;18.38;83.40;101525.97;4960763;28;20692;-82
2021/07/08 07:05:23;;;;;;;12.75;9.35;;;;;;;18.42;84.29;101530.00;4960071;28;20082;-84
2021/07/08 07:07:49;;;;;;;12.45;8.50;;;;;;;18.50;83.01;101524.41;4961577;28;20426;-85
2021/07/08 07:10:15;;;;;;;12.98;9.18;;;;;;;18.59;82.30;101528.63;4959002;28;20053;-83
2021/07/08 07:12:46;;;;;;;14.02;8.48;;;;;;;18.67;82.61;101520.34;4960626;28;20042;-83
2021/07/08 07:15:15;;;;;;;13.55;9.57;;;;;;;18.75;81.45;101518.50;4954545;28;20074;-85
2021/07/08 07:17:41;;;;;;;;;;;;;;;18.83;81.17;101521.91;4954908;28;20058;-84
2021/07/08 07:20:08;;;;;;;14.85;8.77;;;;;;;18.84;81.75;101523.56;4962410;28;19926;-84
2021/07/08 07:22:35;;;;;;;14.88;8.10;;;;;;;18.98;81.33;101521.75;4959400;28;20073;-84
2021/07/08 07:25:01;;;;;;;13.55;8.65;;;;;;;19.13;79.55;101522.47;4936417;28;20035;-85
2021/07/08 07:27:26;;;;;;;12.98;8.35;;;;;;;19.28;79.70;101529.66;4958313;28;20516;-79
2021/07/08 07:29:52;;;;;;;10.60;9.07;;;;;;;19.40;81.69;101528.00;4949320;28;20070;-82
2021/07/08 07:32:17;;;;;;;14.13;8.93;;;;;;;19.46;80.76;101527.19;4953925;28;20036;-84
2021/07/08 07:34:43;;;;;;;12.27;8.95;;;;;;;19.55;80.42;101520.50;4939680;28;20102;-86
2021/07/08 07:37:08;;;;;;;13.02;7.97;;;;;;;19.59;75.69;101521.78;4938010;28;20527;-83
2021/07/08 07:39:34;;;;;;;12.68;7.07;;;;;;;19.76;76.43;101533.13;4951591;28;20163;-83
2021/07/08 07:42:00;;;;;;;10.38;7.40;;;;;;;19.90;75.23;101533.16;4955134;28;20050;-82
2021/07/08 07:44:28;;;;;;;11.68;8.10;;;;;;;19.93;76.01;101533.56;4944907;28;20116;-80
2021/07/08 07:46:55;;;;;;;11.50;6.45;;;;;;;19.98;73.22;101539.25;4944513;28;20073;-79
2021/07/08 07:49:20;;;;;;;12.35;6.97;;;;;;;20.20;76.47;101534.44;4955196;28;20146;-81
2021/07/08 07:51:51;;;;;;;9.70;6.50;;;;;;;20.34;72.40;101540.72;4961320;28;20619;-82
2021/07/08 07:54:17;;;;;;;11.20;6.72;;;;;;;20.34;73.21;101534.41;4950215;28;20058;-82
2021/07/08 07:56:42;;;;;;;9.85;7.03;;;;;;;20.49;74.36;101533.16;4963373;28;20046;-83
2021/07/08 07:59:07;;;;;;;9.43;5.88;;;;;;;20.55;72.97;101536.94;4948505;28;20419;-79
2021/07/08 08:01:33;;;;;;;10.68;5.88;;;;;;;20.67;72.29;101539.84;4944548;28;20511;-81
2021/07/08 08:04:00;;;;;;;7.88;5.47;;;;;;;20.72;71.33;101540.06;4963463;28;20062;-84
2021/07/08 08:09:11;;;;;;;7.45;5.30;;;;;;;20.91;71.45;101539.16;4944182;28;20145;-82
2021/07/08 08:11:39;;;;;;;8.93;5.32;;;;;;;21.02;72.44;101547.72;4960351;28;20175;-83
2021/07/08 08:14:04;;;;;;;7.78;4.50;;;;;;;21.06;71.12;101546.22;4943955;28;20318;-83
2021/07/08 08:16:31;;;;;;;7.97;4.40;;;;;;;21.13;68.52;101549.78;4945951;28;20529;-84
2021/07/08 08:18:57;;;;;;;6.72;3.85;;;;;;;21.20;68.23;101542.41;4962304;28;20099;-80
2021/07/08 08:21:22;;;;;;;5.65;3.50;;;;;;;21.24;65.85;101551.84;4946623;28;20043;-83
2021/07/08 08:23:47;;;;;;;7.13;3.90;;;;;;;21.35;67.26;101564.81;4930634;28;20043;-83
2021/07/08 08:26:13;;;;;;;6.82;4.13;;;;;;;21.37;66.56;101565.44;4931350;28;20035;-84
2021/07/08 08:28:38;;;;;;;5.57;3.88;;;;;;;21.43;65.51;101561.00;4961160;28;20137;-83
2021/07/08 08:31:04;;;;;;;8.10;3.80;;;;;;;21.50;66.53;101556.38;4945739;28;20073;-80
2021/07/08 08:33:29;;;;;;;6.32;4.05;;;;;;;21.67;67.12;101556.72;4935301;28;20492;-85
2021/07/08 08:35:55;;;;;;;7.97;4.15;;;;;;;21.82;67.54;101553.66;4945647;28;20138;-82
2021/07/08 08:38:20;;;;;;;7.00;3.78;;;;;;;21.84;66.99;101557.84;4961921;28;20043;-84
2021/07/08 08:40:48;;;;;;;7.82;4.57;;;;;;;21.84;66.00;101552.38;4958352;28;20093;-82
2021/07/08 08:43:13;;;;;;;7.25;4.38;;;;;;;21.82;66.04;101538.09;4934067;28;20045;-80
2021/07/08 08:45:38;;;;;;;6.10;4.00;;;;;;;21.93;66.56;101544.75;4959778;28;20046;-81
2021/07/08 08:48:09;;;;;;;7.70;3.95;;;;;;;21.99;65.68;101534.84;4942342;28;20034;-78
2021/07/08 08:50:43;;;;;;;7.93;3.45;;;;;;;22.10;66.34;101528.66;4948261;28;20046;-83
2021/07/08 08:53:10;;;;;;;6.78;4.00;;;;;;;22.12;64.12;101526.50;4958364;28;20047;-83
2021/07/08 08:55:37;;;;;;;6.75;3.50;;;;;;;22.07;63.79;101520.91;4960163;28;20034;-84
2021/07/08 08:58:07;;;;;;;5.53;3.50;;;;;;;22.11;63.46;101519.38;4957850;28;20050;-80
2021/07/08 09:00:37;;;;;;;6.00;3.20;;;;;;;22.18;61.30;101519.34;4955250;28;20038;-82
2021/07/08 09:03:12;;;;;;;8.02;3.15;;;;;;;22.23;62.57;101523.09;4965597;28;20435;-82
2021/07/08 09:05:38;;;;;;;6.50;3.22;;;;;;;22.22;61.13;101537.81;4957404;28;20050;-83
2021/07/08 09:08:18;;;;;;;6.43;3.05;;;;;;;22.33;61.64;101528.06;4948968;28;20310;-83
2021/07/08 09:10:47;;;;;;;6.68;2.95;;;;;;;22.35;59.61;101525.91;4943315;28;20054;-83
2021/07/08 09:13:13;;;;;;;5.13;3.00;;;;;;;22.33;61.04;101528.06;4966763;28;20368;-83
2021/07/08 09:15:38;;;;;;;4.65;2.60;;;;;;;22.35;59.29;101525.09;4952865;28;20047;-80
2021/07/08 09:18:04;;;;;;;6.43;2.85;;;;;;;22.35;57.60;101533.28;4938095;28;20047;-84
2021/07/08 09:20:30;;;;;;;4.45;2.72;;;;;;;22.30;59.67;101529.34;4966225;28;20039;-81
2021/07/08 09:23:17;;;;;;;5.43;2.80;;;;;;;22.29;57.54;101537.75;4943403;28;20091;-82
2021/07/08 09:25:44;;;;;;;6.82;3.17;;;;;;;22.21;58.91;101535.31;4925163;28;20300;-82
2021/07/08 09:28:21;;;;;;;5.85;2.50;;;;;;;22.29;58.79;101544.06;4960553;28;20042;-82
2021/07/08 09:31:01;;;;;;;4.97;2.58;;;;;;;22.49;60.13;101538.41;4947220;28;20121;-82
2021/07/08 09:33:35;;;;;;;5.20;3.28;;;;;;;22.69;62.14;101538.19;4965645;28;20317;-80
2021/07/08 09:36:06;;;;;;;6.38;3.50;;;;;;;22.79;61.07;101531.38;4937655;28;20035;-82
2021/07/08 09:38:32;;;;;;;5.43;3.40;;;;;;;22.89;60.62;101528.94;4965913;28;20554;-83
2021/07/08 09:41:25;;;;;;;5.00;3.72;;;;;;;22.95;62.53;101525.31;4950789;28;20178;-81
2021/07/08 09:43:51;;;;;;;6.28;3.50;;;;;;;23.15;60.28;101533.28;4934377;28;20093;-84
2021/07/08 09:46:16;;;;;;;7.00;3.40;;;;;;;23.22;60.68;101542.28;4922828;28;20148;-79
2021/07/08 09:49:08;;;;;;;6.10;3.65;;;;;;;23.19;59.40;101543.56;4962954;28;20056;-83
2021/07/08 09:51:35;;;;;;;6.78;3.33;;;;;;;23.13;60.24;101554.59;4957506;28;20042;-83
2021/07/08 09:54:07;;;;;;;6.63;2.92;;;;;;;23.24;59.36;101555.72;4970912;28;20508;-83
2021/07/08 09:56:49;;;;;;;5.93;3.35;;;;;;;23.46;59.08;101561.56;4963161;28;20194;-82
2021/07/08 09:59:21;;;;;;;6.07;2.80;;;;;;;23.48;56.34;101562.13;4942724;28;20503;-83
2021/07/08 10:01:58;;;;;;;6.13;3.00;;;;;;;23.29;58.02;101566.81;4960764;28;20061;-84
2021/07/08 10:04:24;;;;;;;4.30;2.55;;;;;;;23.35;56.66;101568.63;4953879;28;20050;-83
2021/07/08 10:06:51;;;;;;;8.32;3.30;;;;;;;23.23;55.34;101559.53;4935972;28;20050;-80
2021/07/08 10:09:18;;;;;;;5.20;3.05;;;;;;;23.29;58.28;101564.09;4937774;28;20047;-82
2021/07/08 10:11:48;;;;;;;10.18;3.15;;;;;;;23.42;57.81;101550.22;4939874;28;20134;-80
2021/07/08 10:14:16;;;;;;;5.93;3.17;;;;;;;23.60;58.67;101552.91;4936831;28;20481;-83
2021/07/08 10:16:46;;;;;;;5.53;2.65;;;;;;;23.88;57.84;101562.47;4924414;28;20251;-83
2021/07/08 10:19:16;;;;;;;4.30;2.90;;;;;;;24.09;59.55;101553.66;4916839;29;20134;-82
2021/07/08 10:21:42;;;;;;;5.22;2.95;;;;;;;24.34;58.41;101549.91;4922434;28;20113;-81
2021/07/08 10:24:08;;;;;;;6.60;2.80;;;;;;;24.48;56.05;101550.50;4923242;29;20047;-83
2021/07/08 10:26:39;;;;;;;6.68;3.10;;;;;;;24.33;53.78;101556.44;4917323;29;20047;-81
2021/07/08 10:29:06;;;;;;;6.13;2.92;;;;;;;24.28;57.32;101561.78;4936896;28;20051;-83
2021/07/08 10:31:32;;;;;;;5.68;3.55;;;;;;;24.27;56.28;101549.16;4923122;28;20047;-81
2021/07/08 10:34:17;;;;;;;5.07;2.92;;;;;;;24.35;57.07;101546.06;4925069;28;20468;-83
2021/07/08 10:36:48;;;;;;;7.25;3.40;;;;;;;24.25;55.62;101540.31;4936638;28;20047;-82
2021/07/08 10:39:18;;;;;;;5.57;3.55;;;;;;;24.26;55.35;101539.28;4921320;29;20036;-81
2021/07/08 10:41:50;;;;;;;3.60;2.75;;;;;;;24.37;57.00;101532.97;4938745;28;20061;-83
2021/07/08 10:44:34;;;;;;;4.95;3.17;;;;;;;24.30;55.45;101537.72;4923409;29;20097;-81
2021/07/08 10:47:02;;;;;;;6.95;3.20;;;;;;;24.13;56.74;101543.06;4921630;29;20573;-81
2021/07/08 10:49:39;;;;;;;7.03;3.30;;;;;;;24.06;57.51;101537.69;4921593;28;20054;-81
2021/07/08 10:52:09;;;;;;;5.90;2.95;;;;;;;23.71;57.56;101547.72;4941917;28;20102;-84
2021/07/08 10:54:34;;;;;;;6.75;3.70;;;;;;;23.76;58.73;101537.72;4934432;29;20051;-81
2021/07/08 10:57:01;;;;;;;6.50;4.07;;;;;;;23.69;59.67;101534.25;4937385;29;20555;-80
2021/07/08 10:59:45;;;;;;;6.85;3.80;;;;;;;23.63;58.74;101533.28;4933032;28;20147;-82
2021/07/08 11:02:44;;;;;;;6.13;3.25;;;;;;;23.61;58.84;101538.13;4940779;28;20253;-80
2021/07/08 11:05:10;;;;;;;6.43;3.90;;;;;;;23.51;59.17;101540.63;4944525;28;20058;-81
2021/07/08 11:07:46;;;;;;;6.60;3.72;;;;;;;23.53;59.59;101543.94;4915738;29;20039;-82
2021/07/08 11:10:12;;;;;;;6.03;3.90;;;;;;;23.56;59.17;101543.50;4950980;28;20063;-80
2021/07/08 11:12:40;;;;;;;4.10;3.30;;;;;;;23.42;57.33;101547.50;4950493;28;20034;-84
2021/07/08 11:15:07;;;;;;;7.28;3.85;;;;;;;23.41;59.34;101540.31;4949466;28;20184;-81
2021/07/08 11:17:45;;;;;;;7.45;3.17;;;;;;;23.33;58.89;101546.13;4910725;29;20118;-83
2021/07/08 11:20:28;;;;;;;5.88;2.65;;;;;;;23.47;58.35;101538.56;4944297;28;20050;-85
2021/07/08 11:22:53;;;;;;;5.93;3.35;;;;;;;23.47;58.75;101533.09;4958989;28;20061;-82
2021/07/08 11:25:18;;;;;;;6.25;3.35;;;;;;;23.49;59.29;101525.47;4945967;28;20048;-81